Time;durP1;ratioP1;P1;durP2;ratioP2;P2;SDS_P1;SDS_P2;PMS_P1;PMS_P2;Temp;Humidity;BMP_temperature;BMP_pressure;BME280_temperature;BME280_humidity;BME280_pressure;Samples;Min_cycle;Max_cycle;Signal;HPM_P1;HPM_P2
2023/10/31 00:02:08;;;;;;;3.83;2.33;;;8.20;99.90;;;;;;5080544;28;20036;-94
2023/10/31 00:04:33;;;;;;;3.78;2.38;;;8.20;99.90;;;;;;5079171;28;20021;-94
2023/10/31 00:06:59;;;;;;;2.35;2.10;;;8.20;99.90;;;;;;5084216;28;20025;-95
2023/10/31 00:09:25;;;;;;;5.90;2.50;;;8.10;99.90;;;;;;5081100;28;20054;-94
2023/10/31 00:11:50;;;;;;;3.33;2.58;;;8.20;99.90;;;;;;5084549;28;20032;-96
2023/10/31 00:14:16;;;;;;;3.63;2.25;;;8.10;99.90;;;;;;5084704;28;20020;-94
2023/10/31 00:16:42;;;;;;;2.72;2.53;;;8.10;99.90;;;;;;5083249;28;20024;-93
2023/10/31 00:19:07;;;;;;;2.70;2.50;;;8.10;99.90;;;;;;5086927;28;20028;-94
2023/10/31 00:21:34;;;;;;;6.25;2.55;;;8.10;99.90;;;;;;5085463;28;20032;-96
2023/10/31 00:24:00;;;;;;;5.03;3.00;;;8.10;99.90;;;;;;5086170;28;20036;-94
2023/10/31 00:26:26;;;;;;;4.07;2.55;;;8.10;99.90;;;;;;5088648;28;20062;-93
2023/10/31 00:28:51;;;;;;;6.80;2.60;;;8.10;99.90;;;;;;5085471;28;20047;-95
2023/10/31 00:31:17;;;;;;;5.68;2.80;;;8.10;99.90;;;;;;5083755;28;20029;-94
2023/10/31 00:33:43;;;;;;;3.08;2.55;;;8.10;99.90;;;;;;5084974;28;20024;-94
2023/10/31 00:36:09;;;;;;;2.78;2.47;;;8.10;99.90;;;;;;5082335;28;20025;-94
2023/10/31 00:38:34;;;;;;;4.35;2.60;;;8.10;99.90;;;;;;5082258;28;20028;-93
2023/10/31 00:41:00;;;;;;;3.85;3.05;;;8.10;99.90;;;;;;5085857;28;20084;-94
2023/10/31 00:43:25;;;;;;;3.38;2.40;;;8.10;99.90;;;;;;5080166;28;20033;-95
2023/10/31 00:45:51;;;;;;;3.10;2.20;;;8.10;99.90;;;;;;5080894;28;20060;-94
2023/10/31 00:48:17;;;;;;;5.35;2.30;;;8.10;99.90;;;;;;5081522;28;20039;-94
2023/10/31 00:50:43;;;;;;;3.80;2.10;;;8.10;99.90;;;;;;5080806;28;20032;-94
2023/10/31 00:53:09;;;;;;;2.53;2.03;;;8.10;99.90;;;;;;5081623;28;20059;-95
2023/10/31 00:55:35;;;;;;;3.08;1.98;;;8.10;99.90;;;;;;5085685;28;20028;-94
2023/10/31 00:58:00;;;;;;;2.30;2.10;;;8.10;99.90;;;;;;5083251;28;20032;-94
2023/10/31 01:00:26;;;;;;;5.43;2.28;;;8.10;99.90;;;;;;5079265;28;20029;-93
2023/10/31 01:02:52;;;;;;;2.88;2.10;;;8.10;99.90;;;;;;5081378;28;20039;-93
2023/10/31 01:05:18;;;;;;;4.65;1.98;;;8.10;99.90;;;;;;5082370;28;20028;-95
2023/10/31 01:07:43;;;;;;;1.92;1.73;;;8.10;99.90;;;;;;5081858;28;20031;-96
2023/10/31 01:10:09;;;;;;;2.47;1.70;;;8.10;99.90;;;;;;5080915;28;20112;-95
2023/10/31 01:12:35;;;;;;;1.77;1.67;;;8.10;99.90;;;;;;5079269;28;20028;-94
2023/10/31 01:15:01;;;;;;;1.52;1.40;;;8.10;99.90;;;;;;5079893;28;20140;-94
2023/10/31 01:17:27;;;;;;;1.48;1.38;;;8.10;99.90;;;;;;5085714;28;20036;-94
2023/10/31 01:19:52;;;;;;;1.73;1.63;;;8.10;99.90;;;;;;5092407;28;20035;-94
2023/10/31 01:22:18;;;;;;;1.85;1.50;;;8.20;99.90;;;;;;5095198;28;20016;-95
2023/10/31 01:24:44;;;;;;;1.70;1.60;;;8.20;99.90;;;;;;5093749;28;20115;-94
2023/10/31 01:27:09;;;;;;;2.03;1.80;;;8.20;99.90;;;;;;5091969;28;20043;-96
2023/10/31 01:29:35;;;;;;;1.63;1.38;;;8.20;99.90;;;;;;5089884;28;20028;-94
2023/10/31 01:32:00;;;;;;;1.45;1.35;;;8.20;99.90;;;;;;5090524;28;20032;-94
2023/10/31 01:34:26;;;;;;;1.52;1.42;;;8.20;99.90;;;;;;5088781;28;20053;-95
2023/10/31 01:36:52;;;;;;;1.30;1.20;;;8.10;99.90;;;;;;5086671;28;20032;-94
2023/10/31 01:39:18;;;;;;;2.20;1.40;;;8.10;99.90;;;;;;5085919;28;20039;-95
2023/10/31 01:41:43;;;;;;;2.53;1.63;;;8.10;99.90;;;;;;5086136;28;20066;-95
2023/10/31 01:44:10;;;;;;;1.50;1.40;;;8.10;99.90;;;;;;5083598;28;20033;-95
2023/10/31 01:46:36;;;;;;;1.92;1.70;;;8.10;99.90;;;;;;5085405;28;20035;-95
2023/10/31 01:49:02;;;;;;;1.65;1.33;;;8.10;99.90;;;;;;5085980;28;20050;-94
2023/10/31 01:51:28;;;;;;;2.47;1.10;;;8.20;99.90;;;;;;5082352;28;20033;-94
2023/10/31 01:53:55;;;;;;;2.25;1.75;;;8.10;99.90;;;;;;5085742;28;20058;-95
2023/10/31 01:56:21;;;;;;;1.50;1.40;;;8.10;99.90;;;;;;5080867;28;20099;-94
2023/10/31 01:58:50;;;;;;;1.38;1.20;;;8.20;99.90;;;;;;5079956;28;20099;-95
2023/10/31 02:01:16;;;;;;;1.92;1.35;;;8.10;99.90;;;;;;5088066;28;20025;-95
2023/10/31 02:03:42;;;;;;;2.67;1.20;;;8.20;99.90;;;;;;5071855;28;20059;-96
2023/10/31 02:06:09;;;;;;;1.30;1.10;;;8.20;99.90;;;;;;5086190;28;20021;-95
2023/10/31 02:08:35;;;;;;;1.35;1.25;;;8.10;99.90;;;;;;5083977;28;20107;-95
2023/10/31 02:11:01;;;;;;;1.20;1.10;;;8.10;99.90;;;;;;5080570;28;20056;-95
2023/10/31 02:13:26;;;;;;;1.75;0.98;;;8.10;99.90;;;;;;5079300;28;20025;-96
2023/10/31 02:15:52;;;;;;;1.52;1.00;;;8.10;99.90;;;;;;5081638;28;20141;-95
2023/10/31 02:18:18;;;;;;;1.45;1.10;;;8.10;99.90;;;;;;5086366;28;20039;-95
2023/10/31 02:20:44;;;;;;;0.82;0.80;;;8.10;99.90;;;;;;5080918;28;20063;-95
2023/10/31 02:23:09;;;;;;;1.10;0.93;;;8.00;99.90;;;;;;5081711;28;20039;-94
2023/10/31 02:25:35;;;;;;;0.70;0.70;;;8.00;99.90;;;;;;5080082;28;20029;-96
2023/10/31 02:28:01;;;;;;;1.10;0.82;;;8.00;99.90;;;;;;5079959;28;20115;-96
2023/10/31 02:30:27;;;;;;;1.35;0.82;;;8.00;99.90;;;;;;5080745;28;20086;-95
2023/10/31 02:32:53;;;;;;;1.00;0.90;;;8.00;99.90;;;;;;5080444;28;20078;-95
2023/10/31 02:35:19;;;;;;;0.75;0.70;;;8.00;99.90;;;;;;5083047;28;20048;-94
2023/10/31 02:37:46;;;;;;;1.83;0.82;;;8.00;99.90;;;;;;5081724;28;20040;-93
2023/10/31 02:40:12;;;;;;;1.30;0.77;;;8.00;99.90;;;;;;5081813;28;20062;-94
2023/10/31 02:42:38;;;;;;;1.33;1.02;;;8.00;99.90;;;;;;5077925;28;20105;-94
2023/10/31 02:45:04;;;;;;;1.00;0.80;;;8.00;99.90;;;;;;5080497;28;20025;-95
2023/10/31 02:47:30;;;;;;;1.05;0.95;;;8.00;99.90;;;;;;5081144;28;20017;-95
2023/10/31 02:49:55;;;;;;;0.98;0.60;;;8.10;99.90;;;;;;5079637;28;20028;-94
2023/10/31 02:52:21;;;;;;;1.10;1.00;;;8.10;99.90;;;;;;5081279;28;20035;-94
2023/10/31 02:54:47;;;;;;;1.05;0.93;;;8.00;99.90;;;;;;5084044;28;20037;-94
2023/10/31 02:57:13;;;;;;;1.02;0.70;;;8.00;99.90;;;;;;5082912;28;20059;-95
2023/10/31 02:59:39;;;;;;;1.25;0.82;;;8.00;99.90;;;;;;5085368;28;20024;-93
2023/10/31 03:02:04;;;;;;;1.20;0.80;;;8.00;99.90;;;;;;5092548;28;20057;-91
2023/10/31 03:04:30;;;;;;;1.00;0.80;;;8.00;99.90;;;;;;5089826;28;20032;-94
2023/10/31 03:06:56;;;;;;;1.05;0.90;;;7.90;99.90;;;;;;5091488;28;20064;-95
2023/10/31 03:09:23;;;;;;;1.17;1.08;;;8.00;99.90;;;;;;5093702;28;20071;-94
2023/10/31 03:11:49;;;;;;;1.27;0.95;;;7.90;99.90;;;;;;5097694;28;20035;-92
2023/10/31 03:14:14;;;;;;;0.90;0.90;;;8.00;99.90;;;;;;5097917;28;20025;-94
2023/10/31 03:16:41;;;;;;;1.02;0.93;;;8.00;99.90;;;;;;5097884;28;20035;-94
2023/10/31 03:19:08;;;;;;;1.10;0.70;;;8.00;99.90;;;;;;5099239;28;20025;-91
2023/10/31 03:21:33;;;;;;;2.15;0.90;;;8.00;99.90;;;;;;5098420;28;20013;-94
2023/10/31 03:23:59;;;;;;;1.92;1.20;;;8.00;99.90;;;;;;5098374;28;20019;-94
2023/10/31 03:26:25;;;;;;;1.65;1.10;;;8.00;99.90;;;;;;5098579;28;20035;-93
2023/10/31 03:28:57;;;;;;;1.02;0.90;;;8.00;99.90;;;;;;5098275;28;20100;-92
2023/10/31 03:31:24;;;;;;;4.25;0.68;;;8.00;99.90;;;;;;5098876;28;20028;-94
2023/10/31 03:33:50;;;;;;;1.02;0.75;;;8.00;99.90;;;;;;5098711;28;20008;-92
2023/10/31 03:36:16;;;;;;;0.93;0.73;;;8.00;99.90;;;;;;5098642;28;20102;-93
2023/10/31 03:38:41;;;;;;;1.33;0.90;;;8.00;99.90;;;;;;5098615;28;20116;-91
2023/10/31 03:41:08;;;;;;;0.98;0.88;;;7.90;99.90;;;;;;5098217;28;20029;-92
2023/10/31 03:43:34;;;;;;;1.35;0.77;;;8.00;99.90;;;;;;5097921;28;20029;-94
2023/10/31 03:46:00;;;;;;;0.80;0.80;;;8.00;99.90;;;;;;5095956;28;20029;-94
2023/10/31 03:48:26;;;;;;;1.17;0.80;;;8.00;99.90;;;;;;5072470;28;20039;-95
2023/10/31 03:50:51;;;;;;;1.00;0.80;;;8.00;99.90;;;;;;5085474;28;20188;-94
2023/10/31 03:53:17;;;;;;;0.90;0.80;;;7.90;99.90;;;;;;5085085;28;20017;-94
2023/10/31 03:55:43;;;;;;;0.85;0.80;;;7.90;99.90;;;;;;5089990;28;20044;-95
2023/10/31 03:58:08;;;;;;;1.40;1.02;;;7.90;99.90;;;;;;5087891;28;20029;-96
2023/10/31 04:00:34;;;;;;;2.00;1.00;;;7.90;99.90;;;;;;5087640;28;20442;-95
2023/10/31 04:03:00;;;;;;;1.52;0.98;;;7.90;99.90;;;;;;5086490;28;20037;-96
2023/10/31 04:05:26;;;;;;;1.35;0.90;;;7.90;99.90;;;;;;5081065;28;20131;-96
2023/10/31 04:07:52;;;;;;;2.03;1.20;;;7.90;99.90;;;;;;5082025;28;20374;-95
2023/10/31 04:10:18;;;;;;;1.73;1.17;;;7.90;99.90;;;;;;5080589;28;20025;-95
2023/10/31 04:12:44;;;;;;;1.10;0.95;;;7.80;99.90;;;;;;5083213;28;20115;-95
2023/10/31 04:15:09;;;;;;;3.70;1.20;;;7.80;99.90;;;;;;5085614;28;20468;-95
2023/10/31 04:17:35;;;;;;;1.77;1.50;;;7.90;99.90;;;;;;5077696;28;20037;-95
2023/10/31 04:20:02;;;;;;;2.65;1.48;;;7.80;99.90;;;;;;5087594;28;20033;-96
2023/10/31 04:22:27;;;;;;;1.70;1.35;;;7.80;99.90;;;;;;5090448;28;20127;-96
2023/10/31 04:24:53;;;;;;;1.92;1.55;;;7.80;99.90;;;;;;5081694;28;20059;-96
2023/10/31 04:27:19;;;;;;;1.25;1.10;;;7.90;99.90;;;;;;5083484;28;20035;-95
2023/10/31 04:29:45;;;;;;;1.90;1.60;;;7.90;99.90;;;;;;5082036;28;20090;-96
2023/10/31 04:32:10;;;;;;;1.63;1.45;;;7.90;99.90;;;;;;5106074;28;20021;-91
2023/10/31 04:34:36;;;;;;;1.60;1.50;;;7.90;99.90;;;;;;5095206;28;20040;-94
2023/10/31 04:37:02;;;;;;;1.70;1.40;;;7.90;99.90;;;;;;5095023;28;20037;-95
2023/10/31 04:39:27;;;;;;;3.45;1.60;;;7.90;99.90;;;;;;5094333;28;20027;-96
2023/10/31 04:41:53;;;;;;;4.78;2.00;;;7.90;99.90;;;;;;5096751;28;20054;-95
2023/10/31 04:44:19;;;;;;;2.42;1.33;;;7.90;99.90;;;;;;5096957;28;20024;-92
2023/10/31 04:46:44;;;;;;;2.28;1.77;;;7.90;99.90;;;;;;5097624;28;20017;-88
2023/10/31 04:49:13;;;;;;;2.45;1.73;;;7.90;99.90;;;;;;5096904;28;20020;-91
2023/10/31 04:51:39;;;;;;;2.65;1.58;;;7.90;99.90;;;;;;5097908;28;20027;-89
2023/10/31 04:54:05;;;;;;;1.65;1.33;;;7.90;99.90;;;;;;5098264;28;20076;-89
2023/10/31 04:56:31;;;;;;;1.90;1.50;;;7.90;99.90;;;;;;5097712;28;20104;-89
2023/10/31 04:58:57;;;;;;;2.38;1.67;;;7.90;99.90;;;;;;5097377;28;20045;-88
2023/10/31 05:01:24;;;;;;;4.13;1.30;;;7.90;99.90;;;;;;5097594;28;20020;-89
2023/10/31 05:03:49;;;;;;;2.65;1.60;;;7.90;99.90;;;;;;5097524;28;20039;-88
2023/10/31 05:06:19;;;;;;;2.03;1.50;;;7.90;99.90;;;;;;5097275;28;20009;-91
2023/10/31 05:08:45;;;;;;;1.88;1.63;;;7.90;99.90;;;;;;5096559;28;20052;-94
2023/10/31 05:11:12;;;;;;;1.67;1.45;;;7.90;99.90;;;;;;5096334;28;20044;-91
2023/10/31 05:13:39;;;;;;;1.25;1.15;;;7.90;99.90;;;;;;5096771;28;20147;-89
2023/10/31 05:16:05;;;;;;;2.08;1.10;;;7.90;99.90;;;;;;5097352;28;20016;-89
2023/10/31 05:18:31;;;;;;;1.38;1.00;;;7.80;99.90;;;;;;5097112;28;20044;-89
2023/10/31 05:20:56;;;;;;;1.60;1.10;;;7.80;99.90;;;;;;5097108;28;20013;-90
2023/10/31 05:23:22;;;;;;;1.60;1.20;;;7.80;99.90;;;;;;5097141;28;20025;-89
2023/10/31 05:25:48;;;;;;;1.77;1.00;;;7.80;99.90;;;;;;5097684;28;20016;-91
2023/10/31 05:28:14;;;;;;;2.45;1.25;;;7.80;99.90;;;;;;5096280;28;20686;-90
2023/10/31 05:30:41;;;;;;;1.02;0.90;;;7.90;99.90;;;;;;5097848;28;20076;-90
2023/10/31 05:33:07;;;;;;;5.15;1.38;;;7.80;99.90;;;;;;5080401;28;20017;-89
2023/10/31 05:35:33;;;;;;;1.77;1.13;;;7.80;99.90;;;;;;5096668;28;20051;-91
2023/10/31 05:37:59;;;;;;;2.95;1.35;;;7.80;99.90;;;;;;5096825;28;20104;-90
2023/10/31 05:40:26;;;;;;;2.65;0.80;;;7.80;99.90;;;;;;5097035;28;20008;-90
2023/10/31 05:42:52;;;;;;;1.10;1.00;;;7.80;99.90;;;;;;5096782;28;20039;-89
2023/10/31 05:45:17;;;;;;;1.65;1.10;;;7.80;99.90;;;;;;5097018;28;20056;-90
2023/10/31 05:47:44;;;;;;;2.03;0.98;;;7.70;99.90;;;;;;5096996;28;20021;-89
2023/10/31 05:50:10;;;;;;;0.80;0.75;;;7.70;99.90;;;;;;5097778;28;20031;-88
2023/10/31 05:52:36;;;;;;;0.98;0.80;;;7.70;99.90;;;;;;5097705;28;20017;-89
2023/10/31 05:55:02;;;;;;;1.42;0.80;;;7.70;99.90;;;;;;5096954;28;20028;-89
2023/10/31 05:57:27;;;;;;;0.63;0.60;;;7.70;99.90;;;;;;5097426;28;20086;-88
2023/10/31 05:59:53;;;;;;;0.70;0.70;;;7.70;99.90;;;;;;5096964;28;20086;-88
2023/10/31 06:02:19;;;;;;;0.82;0.60;;;7.70;99.90;;;;;;5100792;28;20012;-87
2023/10/31 06:04:44;;;;;;;0.50;0.35;;;7.80;99.90;;;;;;5101453;28;20027;-89
2023/10/31 06:07:12;;;;;;;1.15;0.70;;;7.80;99.90;;;;;;5101532;28;20064;-88
2023/10/31 06:09:37;;;;;;;0.60;0.60;;;7.80;99.90;;;;;;5100789;28;20009;-89
2023/10/31 06:12:04;;;;;;;0.65;0.50;;;7.80;99.90;;;;;;5101243;28;20012;-93
2023/10/31 06:14:29;;;;;;;0.73;0.60;;;7.80;99.90;;;;;;5098610;28;20051;-93
2023/10/31 06:16:56;;;;;;;0.65;0.65;;;7.80;99.90;;;;;;5099144;28;20016;-94
2023/10/31 06:19:22;;;;;;;1.00;0.80;;;7.80;99.90;;;;;;5099620;28;20036;-94
2023/10/31 06:21:48;;;;;;;0.82;0.68;;;7.80;99.90;;;;;;5099077;28;20101;-92
2023/10/31 06:24:14;;;;;;;1.52;0.60;;;7.70;99.90;;;;;;5097726;28;20028;-96
2023/10/31 06:26:39;;;;;;;1.05;0.80;;;7.70;99.90;;;;;;5091950;28;20023;-94
2023/10/31 06:29:06;;;;;;;0.93;0.70;;;7.70;99.90;;;;;;5084611;28;20040;-95
2023/10/31 06:31:31;;;;;;;2.38;0.80;;;7.80;99.90;;;;;;5081872;28;20111;-95
2023/10/31 06:33:57;;;;;;;0.50;0.50;;;7.80;99.90;;;;;;5084340;28;20079;-96
2023/10/31 06:36:22;;;;;;;0.80;0.70;;;7.80;99.90;;;;;;5081891;28;20128;-95
2023/10/31 06:38:48;;;;;;;1.77;0.75;;;7.80;99.90;;;;;;5087666;28;20055;-94
2023/10/31 06:41:14;;;;;;;0.77;0.77;;;7.80;99.90;;;;;;5080057;28;20036;-96
2023/10/31 06:43:39;;;;;;;0.88;0.68;;;7.80;99.90;;;;;;5078316;28;20025;-95
2023/10/31 06:46:05;;;;;;;1.05;0.90;;;7.80;99.90;;;;;;5078312;28;20474;-95
2023/10/31 06:48:31;;;;;;;0.85;0.85;;;7.90;99.90;;;;;;5096852;28;20020;-96
2023/10/31 06:50:57;;;;;;;0.93;0.75;;;7.80;99.90;;;;;;5081600;28;20089;-93
2023/10/31 06:53:22;;;;;;;1.42;1.10;;;7.80;99.90;;;;;;5091724;28;20035;-91
2023/10/31 06:55:48;;;;;;;1.17;1.08;;;7.80;99.90;;;;;;5093507;28;20100;-95
2023/10/31 06:58:14;;;;;;;1.00;0.90;;;7.80;99.90;;;;;;5090540;28;20056;-95
2023/10/31 07:00:40;;;;;;;1.60;1.25;;;7.80;99.90;;;;;;5088746;28;20035;-94
2023/10/31 07:03:09;;;;;;;1.55;1.33;;;7.90;99.90;;;;;;5090068;28;20032;-95
2023/10/31 07:05:36;;;;;;;1.85;1.60;;;7.90;99.90;;;;;;5084007;28;20058;-95
2023/10/31 07:08:03;;;;;;;1.77;1.55;;;7.90;99.90;;;;;;5083800;28;20059;-96
2023/10/31 07:10:28;;;;;;;2.90;1.73;;;7.90;99.90;;;;;;5087417;28;20046;-95
2023/10/31 07:12:54;;;;;;;2.47;1.90;;;7.90;99.90;;;;;;5102818;28;20048;-94
2023/10/31 07:15:21;;;;;;;2.55;1.95;;;7.90;99.90;;;;;;5109093;28;20036;-94
2023/10/31 07:17:46;;;;;;;2.40;1.80;;;7.90;99.90;;;;;;5090580;28;20024;-94
2023/10/31 07:20:12;;;;;;;3.55;2.30;;;7.90;99.90;;;;;;5089977;28;20114;-94
2023/10/31 07:22:39;;;;;;;3.35;2.03;;;7.80;99.90;;;;;;5092178;28;20024;-96
2023/10/31 07:25:06;;;;;;;4.93;3.10;;;7.80;99.90;;;;;;5093868;28;20021;-94
2023/10/31 07:27:31;;;;;;;2.58;2.10;;;7.90;99.90;;;;;;5095429;28;20096;-93
2023/10/31 07:29:58;;;;;;;3.00;2.40;;;7.90;99.90;;;;;;5113626;28;20027;-95
2023/10/31 07:32:24;;;;;;;3.50;2.35;;;7.90;99.90;;;;;;5096753;28;20029;-96
2023/10/31 07:34:49;;;;;;;4.55;3.10;;;7.90;99.90;;;;;;5112616;28;20056;-95
2023/10/31 07:37:15;;;;;;;4.90;3.20;;;7.90;99.90;;;;;;5095964;28;20043;-95
2023/10/31 07:39:41;;;;;;;2.75;2.22;;;7.90;99.90;;;;;;5096026;28;20084;-93
2023/10/31 07:42:07;;;;;;;3.65;2.83;;;7.90;99.90;;;;;;5093987;28;20019;-95
2023/10/31 07:44:33;;;;;;;2.85;2.40;;;7.90;99.90;;;;;;5095006;28;20052;-94
2023/10/31 07:46:59;;;;;;;5.28;3.30;;;7.90;99.90;;;;;;5092871;28;20044;-93
2023/10/31 07:49:24;;;;;;;7.32;3.63;;;7.90;99.90;;;;;;5095401;28;20055;-95
2023/10/31 07:51:50;;;;;;;5.57;3.65;;;7.90;99.90;;;;;;5095385;28;20031;-95
2023/10/31 07:54:16;;;;;;;5.85;3.50;;;7.90;99.90;;;;;;5093517;28;20070;-94
2023/10/31 07:56:42;;;;;;;5.68;3.65;;;7.90;99.90;;;;;;5093279;28;20042;-95
2023/10/31 07:59:08;;;;;;;6.28;3.58;;;8.00;99.90;;;;;;5111457;28;20032;-94
2023/10/31 08:01:35;;;;;;;6.22;3.60;;;8.00;99.90;;;;;;5094813;28;20013;-95
2023/10/31 08:04:01;;;;;;;5.18;3.55;;;8.00;99.90;;;;;;5094013;28;20036;-93
2023/10/31 08:06:27;;;;;;;6.32;3.78;;;8.00;99.90;;;;;;5088658;28;20107;-94
2023/10/31 08:08:52;;;;;;;6.05;3.40;;;8.00;99.90;;;;;;5089767;28;20021;-95
2023/10/31 08:11:18;;;;;;;6.35;3.67;;;8.00;99.90;;;;;;5090641;28;20039;-96
2023/10/31 08:13:44;;;;;;;5.97;3.50;;;8.00;99.90;;;;;;5088508;28;20092;-96
2023/10/31 08:16:09;;;;;;;12.95;7.38;;;8.00;99.90;;;;;;5094456;28;20056;-95
2023/10/31 08:18:36;;;;;;;10.13;4.68;;;8.00;99.90;;;;;;5094011;28;20055;-94
2023/10/31 08:21:05;;;;;;;6.82;3.60;;;8.00;99.90;;;;;;5093616;28;20036;-95
2023/10/31 08:23:30;;;;;;;6.20;3.42;;;8.00;99.90;;;;;;5093286;28;20025;-96
2023/10/31 08:25:56;;;;;;;5.05;3.05;;;8.00;99.90;;;;;;5090232;28;20096;-95
2023/10/31 08:28:22;;;;;;;7.28;4.35;;;8.10;99.90;;;;;;5085107;28;20486;-96
2023/10/31 08:30:48;;;;;;;8.60;3.90;;;8.10;99.90;;;;;;5085870;28;20063;-96
2023/10/31 08:33:14;;;;;;;9.07;5.53;;;8.10;99.90;;;;;;5087112;28;20059;-94
2023/10/31 08:35:39;;;;;;;7.28;4.32;;;8.10;99.90;;;;;;5087551;28;20104;-94
2023/10/31 08:38:05;;;;;;;6.72;4.28;;;8.10;99.90;;;;;;5087082;28;20474;-95
2023/10/31 08:40:31;;;;;;;4.47;3.03;;;8.20;99.90;;;;;;5089329;28;20032;-95
2023/10/31 08:42:57;;;;;;;5.60;3.47;;;8.20;99.90;;;;;;5090073;28;20036;-94
2023/10/31 08:45:22;;;;;;;5.32;3.40;;;8.20;99.90;;;;;;5089565;28;20028;-94
2023/10/31 08:47:48;;;;;;;5.90;3.15;;;8.20;99.90;;;;;;5105462;28;20031;-93
2023/10/31 08:50:14;;;;;;;6.32;3.25;;;8.20;99.90;;;;;;5088325;28;20036;-95
2023/10/31 08:52:40;;;;;;;6.55;3.50;;;8.30;99.90;;;;;;5081781;28;20043;-95
2023/10/31 08:55:06;;;;;;;5.22;3.03;;;8.30;99.90;;;;;;5083212;28;20040;-95
2023/10/31 08:57:33;;;;;;;7.28;3.63;;;8.30;99.90;;;;;;5079176;28;20465;-95
2023/10/31 09:00:00;;;;;;;6.43;3.67;;;8.30;99.90;;;;;;5080544;28;20031;-95
2023/10/31 09:02:26;;;;;;;6.13;3.45;;;8.30;99.90;;;;;;5080875;28;20032;-94
2023/10/31 09:04:51;;;;;;;6.15;3.65;;;8.40;99.90;;;;;;5084915;28;20044;-95
2023/10/31 09:07:17;;;;;;;10.88;5.10;;;8.40;99.90;;;;;;5083149;28;20060;-94
2023/10/31 09:09:42;;;;;;;9.32;3.50;;;8.40;99.90;;;;;;5077932;28;20486;-93
2023/10/31 09:12:09;;;;;;;6.05;3.17;;;8.40;99.90;;;;;;5096584;28;20052;-95
2023/10/31 09:14:35;;;;;;;6.07;3.40;;;8.40;99.90;;;;;;5076959;28;20033;-96
2023/10/31 09:17:01;;;;;;;7.85;4.10;;;8.40;99.90;;;;;;5078470;28;20028;-95
2023/10/31 09:19:26;;;;;;;7.32;3.47;;;8.50;99.90;;;;;;5076893;28;20032;-95
2023/10/31 09:21:52;;;;;;;6.20;3.03;;;8.50;99.90;;;;;;5075703;28;20024;-96
2023/10/31 09:24:18;;;;;;;4.03;2.33;;;8.50;99.90;;;;;;5078848;28;20029;-96
2023/10/31 09:26:43;;;;;;;7.65;3.30;;;8.60;99.90;;;;;;5096656;28;20024;-94
2023/10/31 09:29:10;;;;;;;6.30;2.70;;;8.60;99.90;;;;;;5099720;28;20079;-96
2023/10/31 09:31:36;;;;;;;3.95;2.55;;;8.60;99.90;;;;;;5085848;28;20102;-95
2023/10/31 09:34:03;;;;;;;5.90;2.80;;;8.60;99.90;;;;;;5087088;28;20553;-96
2023/10/31 09:36:32;;;;;;;5.15;2.97;;;8.70;99.90;;;;;;5086376;28;20024;-95
2023/10/31 09:38:57;;;;;;;5.63;3.25;;;8.70;99.90;;;;;;5087419;28;20039;-95
2023/10/31 09:41:23;;;;;;;5.95;2.70;;;8.70;99.90;;;;;;5086748;28;20056;-95
2023/10/31 09:43:50;;;;;;;4.30;2.65;;;8.80;99.90;;;;;;5088127;28;20028;-96
2023/10/31 09:46:16;;;;;;;4.47;2.78;;;8.80;99.90;;;;;;5103112;28;20048;-95
2023/10/31 09:48:43;;;;;;;8.23;4.13;;;8.80;99.90;;;;;;5085379;28;20025;-94
2023/10/31 09:51:10;;;;;;;6.57;4.05;;;8.90;99.90;;;;;;5084122;28;20097;-94
2023/10/31 09:53:38;;;;;;;7.63;3.80;;;8.90;99.90;;;;;;5084964;28;20033;-94
2023/10/31 09:56:06;;;;;;;6.07;3.80;;;8.90;99.90;;;;;;5091801;28;20059;-94
2023/10/31 09:58:31;;;;;;;7.75;3.67;;;9.00;99.90;;;;;;5095236;28;20096;-93
2023/10/31 10:00:57;;;;;;;6.55;3.80;;;9.00;99.90;;;;;;5087220;28;20166;-95
2023/10/31 10:03:23;;;;;;;5.88;3.70;;;9.00;99.90;;;;;;5080310;28;20032;-95
2023/10/31 10:05:49;;;;;;;8.32;4.47;;;9.10;99.90;;;;;;5079520;28;20028;-95
2023/10/31 10:08:16;;;;;;;7.43;3.80;;;9.10;99.90;;;;;;5096909;28;20037;-95
2023/10/31 10:10:42;;;;;;;6.10;3.03;;;9.10;99.90;;;;;;5079708;28;20110;-96
2023/10/31 10:13:08;;;;;;;7.88;3.80;;;9.10;99.90;;;;;;5078481;28;20036;-94
2023/10/31 10:15:52;;;;;;;5.63;3.42;;;9.10;99.90;;;;;;5074715;28;20051;-96
2023/10/31 10:18:32;;;;;;;5.00;2.97;;;9.20;99.90;;;;;;5075015;28;20033;-95
2023/10/31 10:21:00;;;;;;;4.50;2.63;;;9.20;99.90;;;;;;5075906;28;20025;-96
2023/10/31 10:23:26;;;;;;;4.45;2.60;;;9.20;99.90;;;;;;5078866;28;20062;-96
2023/10/31 10:25:53;;;;;;;4.88;3.25;;;9.20;99.90;;;;;;5082596;28;20025;-95
2023/10/31 10:28:22;;;;;;;6.65;3.28;;;9.20;99.90;;;;;;5081138;28;20025;-95
2023/10/31 10:30:48;;;;;;;6.35;3.22;;;9.30;99.90;;;;;;5081994;28;20020;-96
2023/10/31 10:33:15;;;;;;;6.82;3.67;;;9.30;99.90;;;;;;5081187;28;20027;-95
2023/10/31 10:35:42;;;;;;;5.38;3.20;;;9.40;99.90;;;;;;5082918;28;20055;-95
2023/10/31 10:38:12;;;;;;;5.45;3.20;;;9.40;99.90;;;;;;5088200;28;20029;-96
2023/10/31 10:40:42;;;;;;;;;;;9.40;99.90;;;;;;5091109;28;20036;-91
2023/10/31 10:43:26;;;;;;;3.97;2.67;;;9.50;99.90;;;;;;5084872;28;19911;-95
2023/10/31 10:45:55;;;;;;;5.65;2.78;;;9.40;99.90;;;;;;5085550;28;20281;-94
2023/10/31 10:48:22;;;;;;;5.57;2.85;;;9.50;99.90;;;;;;5094799;28;20051;-92
2023/10/31 10:50:57;;;;;;;4.35;2.90;;;9.50;99.90;;;;;;5095445;28;20036;-95
2023/10/31 10:53:27;;;;;;;5.00;2.80;;;9.50;99.90;;;;;;5092482;28;20029;-95
2023/10/31 10:56:08;;;;;;;3.85;2.15;;;9.60;99.90;;;;;;5086169;28;20050;-94
2023/10/31 10:58:44;;;;;;;3.72;2.30;;;9.60;99.90;;;;;;5093753;28;20089;-94
2023/10/31 11:01:10;;;;;;;4.53;2.13;;;9.60;99.90;;;;;;5087710;28;20047;-95
2023/10/31 11:03:37;;;;;;;3.58;2.38;;;9.60;99.90;;;;;;5095263;28;20072;-94
2023/10/31 11:06:03;;;;;;;5.47;2.25;;;9.60;99.90;;;;;;5096023;28;20053;-92
2023/10/31 11:08:30;;;;;;;5.15;2.15;;;9.70;99.90;;;;;;5107809;28;20025;-96
2023/10/31 11:10:57;;;;;;;7.13;2.88;;;9.70;99.90;;;;;;5087554;28;20075;-96
2023/10/31 11:13:24;;;;;;;5.03;2.75;;;9.70;99.90;;;;;;5101890;28;20028;-94
2023/10/31 11:15:54;;;;;;;5.78;2.83;;;9.70;99.90;;;;;;5078660;28;20025;-95
2023/10/31 11:18:20;;;;;;;5.65;3.45;;;9.70;99.90;;;;;;5080701;28;20036;-96
2023/10/31 11:20:46;;;;;;;4.57;2.80;;;9.80;99.90;;;;;;5083355;28;20024;-96
2023/10/31 11:23:12;;;;;;;3.92;2.67;;;9.80;99.90;;;;;;5081523;28;20083;-95
2023/10/31 11:25:46;;;;;;;6.93;3.17;;;9.70;99.90;;;;;;5084885;28;20021;-96
2023/10/31 11:28:14;;;;;;;5.35;2.60;;;9.70;99.90;;;;;;5090950;28;20043;-94
2023/10/31 11:30:43;;;;;;;5.07;2.78;;;9.70;99.90;;;;;;5088347;28;20021;-96
2023/10/31 11:33:14;;;;;;;4.15;2.60;;;9.80;99.90;;;;;;5078920;28;20067;-96
2023/10/31 11:35:40;;;;;;;4.57;2.95;;;9.80;99.90;;;;;;5080114;28;20127;-96
2023/10/31 11:38:11;;;;;;;6.72;2.85;;;9.80;99.90;;;;;;5078082;28;20036;-96
2023/10/31 11:40:38;;;;;;;4.88;3.03;;;9.80;99.90;;;;;;5077362;28;20062;-93
2023/10/31 11:43:08;;;;;;;4.03;2.38;;;9.80;99.90;;;;;;5077339;28;20588;-95
2023/10/31 11:45:47;;;;;;;4.57;3.25;;;9.80;99.90;;;;;;5080570;28;20101;-95
2023/10/31 11:48:13;;;;;;;5.88;3.22;;;9.80;99.90;;;;;;5078814;28;20029;-94
2023/10/31 11:50:39;;;;;;;6.15;3.25;;;9.90;99.90;;;;;;5094463;28;20028;-95
2023/10/31 11:53:12;;;;;;;4.38;2.70;;;9.90;99.90;;;;;;5077357;28;20031;-95
2023/10/31 11:55:46;;;;;;;5.03;3.08;;;10.00;99.90;;;;;;5077950;28;20024;-96
2023/10/31 11:58:20;;;;;;;4.68;2.63;;;10.00;99.90;;;;;;5076663;28;20044;-95
2023/10/31 12:00:48;;;;;;;3.65;2.63;;;10.10;99.90;;;;;;5075886;28;20027;-95
2023/10/31 12:03:17;;;;;;;3.97;2.53;;;10.10;99.90;;;;;;5075669;28;20032;-95
2023/10/31 12:05:53;;;;;;;4.00;2.72;;;10.10;99.90;;;;;;5075859;28;20048;-95
2023/10/31 12:08:47;;;;;;;3.85;2.60;;;10.10;99.90;;;;;;5075673;28;20036;-94
2023/10/31 12:11:17;;;;;;;5.78;2.67;;;10.10;99.90;;;;;;5075179;28;20067;-96
2023/10/31 12:14:01;;;;;;;3.40;2.65;;;10.10;99.90;;;;;;5093246;28;20021;-96
2023/10/31 12:16:28;;;;;;;3.13;2.30;;;10.10;99.90;;;;;;5080494;28;20020;-94
2023/10/31 12:18:59;;;;;;;3.63;2.70;;;10.20;99.90;;;;;;5083618;28;20481;-94
2023/10/31 12:21:56;;;;;;;3.47;2.42;;;10.10;99.90;;;;;;5083297;28;20095;-95
2023/10/31 12:24:21;;;;;;;3.38;2.22;;;10.20;99.90;;;;;;5077623;28;20031;-96
2023/10/31 12:26:47;;;;;;;3.97;2.67;;;10.10;99.90;;;;;;5079526;28;20028;-96
2023/10/31 12:29:19;;;;;;;6.05;2.53;;;10.20;99.90;;;;;;5077777;28;20350;-96
2023/10/31 12:31:49;;;;;;;5.55;2.65;;;10.20;99.90;;;;;;5083005;28;20047;-96
2023/10/31 12:34:15;;;;;;;;;;;10.20;99.90;;;;;;5089942;28;20059;-96
2023/10/31 12:36:42;;;;;;;3.78;2.97;;;10.20;99.90;;;;;;5085623;28;19905;-95
2023/10/31 12:39:10;;;;;;;5.28;2.78;;;10.30;99.90;;;;;;5096177;28;20045;-96
2023/10/31 12:41:37;;;;;;;5.55;3.70;;;10.30;99.90;;;;;;5095023;28;20112;-95
2023/10/31 12:44:04;;;;;;;5.55;3.95;;;10.30;99.90;;;;;;5092043;28;20050;-94
2023/10/31 12:46:31;;;;;;;4.75;3.03;;;10.30;99.90;;;;;;5084871;28;20094;-96
2023/10/31 12:48:58;;;;;;;7.68;3.55;;;10.30;99.90;;;;;;5082641;28;20013;-96
2023/10/31 12:51:23;;;;;;;5.93;3.38;;;10.40;99.90;;;;;;5085131;28;20031;-95
2023/10/31 12:53:50;;;;;;;4.95;2.80;;;10.40;99.90;;;;;;5091179;28;20021;-93
2023/10/31 12:56:39;;;;;;;5.70;4.32;;;10.40;99.90;;;;;;5114650;28;20039;-87